createdAt,value
2023-06-08T00:02:09.282Z,54.40
2023-06-08T00:04:41.792Z,54.67
2023-06-08T00:07:12.278Z,54.49
2023-06-08T00:09:42.563Z,54.60
2023-06-08T00:12:13.956Z,54.60
2023-06-08T00:14:44.219Z,54.36
2023-06-08T00:17:14.748Z,54.39
2023-06-08T00:19:45.699Z,54.29
2023-06-08T00:22:16.198Z,54.23
2023-06-08T00:24:46.377Z,54.27
2023-06-08T00:27:16.676Z,54.18
2023-06-08T00:29:46.955Z,54.22
2023-06-08T00:32:17.398Z,54.16
2023-06-08T00:34:47.580Z,54.29
2023-06-08T00:37:17.831Z,54.17
2023-06-08T00:39:48.127Z,54.22
2023-06-08T00:42:18.397Z,54.17
2023-06-08T00:44:48.705Z,54.15
2023-06-08T00:47:19.276Z,54.13
2023-06-08T00:49:49.904Z,54.12
2023-06-08T00:52:22.778Z,54.10
2023-06-08T00:54:57.636Z,54.16
2023-06-08T00:57:29.412Z,54.11
2023-06-08T01:00:01.910Z,54.08
2023-06-08T01:02:32.887Z,53.99
2023-06-08T01:05:03.664Z,53.97
2023-06-08T01:07:42.187Z,53.98
2023-06-08T01:10:17.905Z,53.97
2023-06-08T01:12:53.759Z,53.91
2023-06-08T01:15:28.497Z,53.78
2023-06-08T01:18:05.587Z,53.81
2023-06-08T01:20:43.133Z,53.82
2023-06-08T01:23:21.953Z,53.84
2023-06-08T01:25:53.401Z,53.67
2023-06-08T01:28:24.739Z,53.75
2023-06-08T01:30:58.175Z,53.68
2023-06-08T01:33:30.631Z,53.69
2023-06-08T01:36:07.908Z,53.71
2023-06-08T01:38:47.475Z,53.65
2023-06-08T01:41:22.841Z,53.59
2023-06-08T01:43:54.085Z,53.91
2023-06-08T01:46:26.635Z,53.92
2023-06-08T01:48:59.595Z,53.98
2023-06-08T01:51:30.321Z,54.08
2023-06-08T01:54:04.236Z,54.10
2023-06-08T01:56:35.418Z,54.17
2023-06-08T01:59:05.934Z,54.27
2023-06-08T02:01:36.209Z,54.33
2023-06-08T02:04:06.738Z,54.52
2023-06-08T02:06:37.262Z,54.45
2023-06-08T02:09:09.064Z,54.54
2023-06-08T02:11:39.264Z,54.64
2023-06-08T02:14:09.637Z,54.61
2023-06-08T02:16:40.379Z,54.84
2023-06-08T02:19:13.320Z,54.80
2023-06-08T02:21:44.772Z,55.03
2023-06-08T02:24:15.212Z,55.09
2023-06-08T02:26:46.290Z,55.14
2023-06-08T02:29:16.521Z,55.22
2023-06-08T02:31:46.825Z,55.35
2023-06-08T02:34:17.439Z,55.38
2023-06-08T02:36:48.290Z,55.35
2023-06-08T02:39:19.233Z,55.61
2023-06-08T02:41:49.448Z,55.57
2023-06-08T02:44:19.869Z,55.50
2023-06-08T02:46:50.619Z,55.66
2023-06-08T02:49:21.011Z,55.78
2023-06-08T02:51:51.254Z,55.75
2023-06-08T02:54:21.759Z,55.81
2023-06-08T02:56:52.373Z,55.94
2023-06-08T02:59:24.179Z,55.96
2023-06-08T03:01:54.897Z,56.12
2023-06-08T03:04:30.572Z,56.00
2023-06-08T03:07:10.485Z,56.23
2023-06-08T03:09:41.652Z,56.27
2023-06-08T03:12:14.882Z,56.60
2023-06-08T03:14:49.806Z,56.53
2023-06-08T03:17:21.224Z,56.53
2023-06-08T03:19:51.979Z,56.78
2023-06-08T03:22:25.458Z,56.87
2023-06-08T03:25:01.781Z,56.97
2023-06-08T03:27:32.846Z,57.23
2023-06-08T03:30:06.144Z,57.35
2023-06-08T03:32:50.249Z,57.34
2023-06-08T03:35:22.930Z,57.38
2023-06-08T03:38:01.513Z,57.27
2023-06-08T03:40:32.557Z,57.25
2023-06-08T03:43:03.274Z,57.32
2023-06-08T03:45:34.003Z,57.37
2023-06-08T03:48:05.820Z,57.55
2023-06-08T03:50:36.636Z,57.39
2023-06-08T03:53:06.853Z,57.45
2023-06-08T03:55:37.348Z,57.19
2023-06-08T03:58:07.617Z,56.97
2023-06-08T04:00:38.000Z,56.71
2023-06-08T04:03:08.536Z,56.60
2023-06-08T04:05:39.829Z,56.20
2023-06-08T04:08:10.074Z,55.85
2023-06-08T04:10:40.302Z,55.59
2023-06-08T04:13:10.762Z,55.32
2023-06-08T04:15:41.560Z,54.92
2023-06-08T04:18:15.602Z,54.54
2023-06-08T04:20:46.283Z,54.35
2023-06-08T04:23:17.675Z,53.95
2023-06-08T04:25:48.530Z,53.53
2023-06-08T04:28:18.803Z,53.09
2023-06-08T04:30:49.416Z,52.99
2023-06-08T04:33:21.555Z,52.71
2023-06-08T04:35:52.619Z,52.35
2023-06-08T04:38:23.012Z,52.38
2023-06-08T04:40:54.926Z,52.66
2023-06-08T04:43:31.265Z,52.94
2023-06-08T04:46:06.811Z,53.48
2023-06-08T04:48:38.468Z,53.96
2023-06-08T04:51:10.434Z,54.45
2023-06-08T04:53:43.617Z,54.88
2023-06-08T04:56:20.294Z,55.34
2023-06-08T04:58:52.392Z,55.51
2023-06-08T05:01:22.826Z,55.80
2023-06-08T05:03:53.168Z,56.02
2023-06-08T05:06:23.450Z,56.18
2023-06-08T05:08:53.668Z,56.35
2023-06-08T05:11:23.890Z,56.44
2023-06-08T05:13:54.101Z,56.56
2023-06-08T05:16:26.604Z,56.56
2023-06-08T05:18:57.174Z,56.62
2023-06-08T05:21:29.836Z,56.63
2023-06-08T05:24:00.150Z,58.34
2023-06-08T05:26:30.455Z,59.64
2023-06-08T05:29:02.300Z,60.10
2023-06-08T05:31:33.027Z,59.76
2023-06-08T05:34:03.294Z,59.30
2023-06-08T05:36:33.556Z,58.17
2023-06-08T05:39:05.745Z,57.37
2023-06-08T05:41:36.058Z,56.73
2023-06-08T05:44:06.918Z,55.58
2023-06-08T05:46:37.199Z,54.25
2023-06-08T05:49:07.698Z,52.70
2023-06-08T05:51:38.053Z,52.36
2023-06-08T05:54:08.686Z,53.02
2023-06-08T05:56:39.315Z,52.24
2023-06-08T05:59:09.514Z,53.07
2023-06-08T06:01:40.340Z,53.60
2023-06-08T06:04:22.302Z,53.71
2023-06-08T06:07:00.916Z,53.47
2023-06-08T06:09:31.178Z,53.62
2023-06-08T06:12:01.410Z,51.75
2023-06-08T06:14:39.345Z,51.93
2023-06-08T06:17:10.493Z,51.33
2023-06-08T06:19:41.199Z,51.66
2023-06-08T06:22:12.533Z,52.88
2023-06-08T06:24:42.747Z,53.58
2023-06-08T06:27:13.267Z,54.93
2023-06-08T06:29:43.490Z,55.48
2023-06-08T06:32:13.969Z,56.51
2023-06-08T06:34:45.599Z,57.77
2023-06-08T06:37:17.832Z,57.82
2023-06-08T06:39:48.076Z,58.03
2023-06-08T06:42:24.402Z,58.43
2023-06-08T06:45:05.478Z,59.17
2023-06-08T06:47:35.672Z,59.01
2023-06-08T06:50:07.981Z,58.94
2023-06-08T06:52:37.630Z,59.08
2023-06-08T06:55:09.292Z,59.33
2023-06-08T06:57:41.456Z,58.81
2023-06-08T07:00:14.504Z,58.95
2023-06-08T07:02:44.827Z,58.73
2023-06-08T07:05:15.525Z,58.07
2023-06-08T07:07:45.767Z,57.08
2023-06-08T07:10:16.022Z,56.81
2023-06-08T07:12:46.234Z,56.55
2023-06-08T07:15:18.164Z,54.90
2023-06-08T07:17:49.326Z,53.09
2023-06-08T07:20:20.331Z,52.12
2023-06-08T07:23:04.804Z,51.84
2023-06-08T07:26:25.946Z,49.86
2023-06-08T07:28:32.045Z,49.25
2023-06-08T07:31:02.322Z,48.31
2023-06-08T07:33:32.976Z,47.24
2023-06-08T07:36:03.159Z,46.90
2023-06-08T07:38:34.174Z,47.26
2023-06-08T07:41:06.994Z,47.40
2023-06-08T07:43:37.259Z,47.01
2023-06-08T07:46:07.809Z,47.53
2023-06-08T07:48:38.131Z,48.33
2023-06-08T07:51:11.638Z,49.66
2023-06-08T07:53:59.599Z,49.80
2023-06-08T07:56:30.182Z,50.37
2023-06-08T07:59:00.782Z,50.09
2023-06-08T08:01:31.084Z,50.69
2023-06-08T08:04:01.687Z,51.08
2023-06-08T08:06:32.077Z,51.44
2023-06-08T08:09:02.321Z,51.41
2023-06-08T08:11:32.664Z,51.47
2023-06-08T08:14:02.897Z,51.23
2023-06-08T08:16:33.236Z,50.89
2023-06-08T08:19:03.490Z,50.67
2023-06-08T08:21:33.862Z,49.73
2023-06-08T08:24:04.950Z,48.84
2023-06-08T08:26:37.294Z,48.34
2023-06-08T08:29:07.590Z,47.89
2023-06-08T08:31:38.173Z,47.22
2023-06-08T08:34:11.761Z,46.89
2023-06-08T08:36:42.394Z,46.89
2023-06-08T08:39:15.417Z,46.19
2023-06-08T08:41:45.870Z,45.83
2023-06-08T08:44:18.173Z,45.62
2023-06-08T08:46:49.010Z,45.13
2023-06-08T08:49:19.681Z,44.41
2023-06-08T08:51:53.398Z,43.79
2023-06-08T08:54:32.720Z,43.76
2023-06-08T08:57:03.253Z,42.94
2023-06-08T08:59:34.431Z,42.72
2023-06-08T09:02:05.137Z,42.43
2023-06-08T09:04:35.568Z,41.96
2023-06-08T09:07:06.711Z,41.95
2023-06-08T09:09:36.975Z,41.42
2023-06-08T09:14:42.775Z,41.24
2023-06-08T09:17:13.767Z,41.74
2023-06-08T09:19:55.871Z,41.21
2023-06-08T09:22:32.655Z,41.05
2023-06-08T09:25:03.812Z,40.79
2023-06-08T09:27:34.408Z,40.49
2023-06-08T09:30:05.032Z,40.63
2023-06-08T09:32:38.348Z,40.29
2023-06-08T09:35:10.626Z,40.61
2023-06-08T09:37:42.156Z,41.12
2023-06-08T09:40:25.129Z,40.25
2023-06-08T09:42:56.679Z,40.10
2023-06-08T09:45:27.224Z,39.66
2023-06-08T09:48:12.574Z,39.45
2023-06-08T09:50:43.674Z,39.49
2023-06-08T09:53:14.552Z,39.89
2023-06-08T09:55:45.293Z,39.85
2023-06-08T09:58:16.305Z,39.37
2023-06-08T10:00:46.868Z,39.61
2023-06-08T10:03:20.935Z,39.88
2023-06-08T10:05:51.677Z,39.75
2023-06-08T10:08:24.198Z,39.97
2023-06-08T10:10:54.483Z,39.87
2023-06-08T10:13:25.663Z,39.21
2023-06-08T10:15:58.688Z,39.08
2023-06-08T10:18:29.339Z,37.98
2023-06-08T10:21:01.906Z,38.28
2023-06-08T10:23:32.634Z,38.41
2023-06-08T10:26:03.104Z,38.66
2023-06-08T10:28:33.977Z,38.58
2023-06-08T10:31:33.235Z,37.45
2023-06-08T10:34:08.831Z,37.90
2023-06-08T10:36:40.701Z,37.89
2023-06-08T10:39:13.234Z,38.11
2023-06-08T10:41:44.932Z,37.31
2023-06-08T10:44:30.578Z,37.10
2023-06-08T10:47:05.405Z,36.88
2023-06-08T10:49:37.731Z,36.50
2023-06-08T10:52:11.510Z,36.49
2023-06-08T10:54:54.197Z,36.03
2023-06-08T10:57:39.809Z,35.03
2023-06-08T11:00:43.673Z,34.51
2023-06-08T11:03:18.952Z,33.87
2023-06-08T11:05:54.018Z,34.11
2023-06-08T11:08:24.717Z,33.65
2023-06-08T11:10:56.617Z,34.01
2023-06-08T11:13:26.872Z,32.98
2023-06-08T11:15:57.858Z,32.70
2023-06-08T11:18:28.260Z,32.87
2023-06-08T11:20:59.865Z,33.35
2023-06-08T11:23:35.614Z,33.55
2023-06-08T11:26:05.864Z,31.93
2023-06-08T11:28:36.045Z,31.44
2023-06-08T11:31:11.107Z,31.36
2023-06-08T11:33:51.091Z,31.04
2023-06-08T11:36:21.801Z,31.21
2023-06-08T11:38:53.163Z,30.95
2023-06-08T11:41:24.907Z,30.54
2023-06-08T11:43:55.082Z,29.93
2023-06-08T11:46:25.447Z,30.19
2023-06-08T11:48:56.014Z,29.53
2023-06-08T11:51:26.940Z,28.33
2023-06-08T11:53:58.512Z,28.09
2023-06-08T11:56:36.879Z,27.72
2023-06-08T11:59:07.192Z,27.17
2023-06-08T12:01:38.578Z,27.13
2023-06-08T12:04:16.474Z,26.65
2023-06-08T12:06:46.782Z,26.91
2023-06-08T12:09:17.044Z,26.59
2023-06-08T12:11:47.621Z,25.37
2023-06-08T12:14:18.328Z,25.39
2023-06-08T12:16:48.593Z,24.89
2023-06-08T12:19:19.000Z,23.79
2023-06-08T12:21:49.390Z,22.95
2023-06-08T12:24:19.666Z,22.98
2023-06-08T12:26:50.043Z,23.14
2023-06-08T12:29:23.061Z,24.50
2023-06-08T12:31:53.815Z,26.01
2023-06-08T12:34:24.688Z,27.10
2023-06-08T12:36:55.224Z,28.22
2023-06-08T12:39:28.265Z,29.06
2023-06-08T12:41:59.109Z,30.32
2023-06-08T12:44:29.899Z,31.23
2023-06-08T12:47:00.570Z,32.21
2023-06-08T12:49:33.587Z,33.02
2023-06-08T12:52:04.129Z,34.95
2023-06-08T12:54:34.752Z,36.29
2023-06-08T12:57:10.654Z,37.84
2023-06-08T12:59:40.911Z,38.29
2023-06-08T13:02:13.504Z,38.16
2023-06-08T13:04:44.496Z,38.07
2023-06-08T13:07:14.782Z,37.80
2023-06-08T13:09:44.993Z,37.76
2023-06-08T13:12:15.723Z,36.78
2023-06-08T13:14:45.973Z,36.17
2023-06-08T13:17:26.766Z,35.17
2023-06-08T13:19:57.373Z,33.21
2023-06-08T13:22:27.589Z,31.45
2023-06-08T13:24:58.715Z,29.96
2023-06-08T13:27:29.828Z,29.25
2023-06-08T13:30:00.088Z,28.91
2023-06-08T13:32:32.334Z,27.94
2023-06-08T13:35:02.786Z,27.50
2023-06-08T13:37:33.469Z,27.91
2023-06-08T13:40:03.962Z,28.17
2023-06-08T13:42:34.577Z,28.85
2023-06-08T13:45:05.084Z,29.73
2023-06-08T13:47:35.451Z,30.23
2023-06-08T13:50:06.308Z,29.73
2023-06-08T13:52:36.712Z,30.63
2023-06-08T13:55:07.968Z,31.09
2023-06-08T13:57:38.219Z,31.26
2023-06-08T14:00:12.019Z,31.62
2023-06-08T14:02:48.398Z,30.83
2023-06-08T14:05:20.787Z,29.55
2023-06-08T14:07:51.487Z,27.07
2023-06-08T14:10:21.686Z,25.46
2023-06-08T14:12:53.178Z,24.54
2023-06-08T14:15:23.431Z,24.00
2023-06-08T14:17:57.359Z,23.26
2023-06-08T14:20:29.975Z,22.35
2023-06-08T14:23:00.348Z,21.97
2023-06-08T14:25:30.605Z,21.28
2023-06-08T14:28:00.865Z,21.02
2023-06-08T14:30:31.246Z,19.56
2023-06-08T14:33:03.034Z,19.39
2023-06-08T14:35:35.123Z,19.47
2023-06-08T14:38:05.648Z,19.15
2023-06-08T14:40:36.163Z,17.95
2023-06-08T14:43:06.603Z,17.64
2023-06-08T14:45:37.293Z,17.68
2023-06-08T14:48:06.385Z,17.29
2023-06-08T14:50:36.718Z,17.37
2023-06-08T14:53:07.055Z,19.09
2023-06-08T14:55:38.072Z,21.18
2023-06-08T14:58:08.423Z,22.33
2023-06-08T15:00:38.758Z,24.50
2023-06-08T15:03:09.213Z,27.04
2023-06-08T15:05:40.865Z,29.93
2023-06-08T15:08:11.132Z,32.86
2023-06-08T15:10:41.363Z,35.51
2023-06-08T15:13:11.847Z,37.87
2023-06-08T15:15:42.051Z,39.15
2023-06-08T15:18:12.432Z,40.18
2023-06-08T15:20:42.716Z,41.84
2023-06-08T15:23:14.561Z,44.62
2023-06-08T15:25:44.784Z,47.65
2023-06-08T15:28:14.983Z,49.66
2023-06-08T15:30:45.197Z,51.48
2023-06-08T15:33:15.861Z,52.92
2023-06-08T15:35:46.743Z,54.11
2023-06-08T15:38:17.461Z,55.30
2023-06-08T15:40:50.066Z,57.66
2023-06-08T15:43:20.321Z,60.28
2023-06-08T15:45:50.515Z,61.16
2023-06-08T15:48:20.805Z,61.88
2023-06-08T15:50:52.432Z,62.69
2023-06-08T15:53:22.565Z,63.98
2023-06-08T15:55:52.762Z,64.61
2023-06-08T15:58:26.403Z,65.61
2023-06-08T16:00:56.963Z,66.25
2023-06-08T16:03:27.229Z,66.99
2023-06-08T16:05:59.483Z,67.86
2023-06-08T16:08:29.742Z,67.69
2023-06-08T16:10:59.965Z,68.18
2023-06-08T16:13:30.785Z,68.21
2023-06-08T16:16:01.682Z,68.37
2023-06-08T16:18:32.174Z,68.85
2023-06-08T16:21:02.871Z,68.99
2023-06-08T16:23:33.088Z,69.16
2023-06-08T16:26:03.548Z,69.63
2023-06-08T16:28:33.959Z,69.86
2023-06-08T16:31:04.930Z,69.79
2023-06-08T16:33:37.229Z,69.74
2023-06-08T16:36:08.025Z,69.86
2023-06-08T16:38:39.458Z,67.38
2023-06-08T16:41:10.164Z,67.58
2023-06-08T16:43:40.450Z,67.58
2023-06-08T16:46:10.666Z,68.00
2023-06-08T16:48:41.040Z,68.82
2023-06-08T16:51:11.255Z,68.51
2023-06-08T16:53:41.462Z,68.80
2023-06-08T16:56:12.059Z,68.16
2023-06-08T16:58:49.238Z,66.98
2023-06-08T17:01:19.694Z,66.77
2023-06-08T17:03:49.914Z,66.02
2023-06-08T17:06:20.407Z,65.66
2023-06-08T17:08:50.755Z,65.20
2023-06-08T17:11:23.316Z,65.18
2023-06-08T17:13:53.498Z,64.71
2023-06-08T17:16:24.151Z,64.23
2023-06-08T17:18:54.407Z,64.09
2023-06-08T17:21:24.956Z,63.94
2023-06-08T17:23:55.356Z,63.37
2023-06-08T17:26:26.246Z,63.39
2023-06-08T17:28:56.599Z,62.48
2023-06-08T17:31:26.901Z,62.20
2023-06-08T17:33:58.910Z,61.79
2023-06-08T17:36:29.229Z,61.80
2023-06-08T17:38:59.528Z,61.55
2023-06-08T17:41:29.778Z,61.39
2023-06-08T17:44:00.059Z,61.11
2023-06-08T17:46:30.432Z,60.78
2023-06-08T17:49:00.651Z,60.89
2023-06-08T17:51:31.264Z,60.84
2023-06-08T17:54:01.589Z,60.33
2023-06-08T17:56:32.214Z,60.07
2023-06-08T17:59:02.451Z,59.53
2023-06-08T18:01:35.957Z,59.02
2023-06-08T18:04:06.764Z,58.60
2023-06-08T18:06:37.898Z,58.91
2023-06-08T18:09:08.141Z,58.71
2023-06-08T18:11:38.755Z,58.44
2023-06-08T18:14:09.255Z,59.12
2023-06-08T18:16:39.670Z,57.29
2023-06-08T18:19:09.988Z,58.22
2023-06-08T18:21:41.618Z,59.17
2023-06-08T18:24:12.286Z,59.01
2023-06-08T18:26:42.680Z,59.14
2023-06-08T18:29:13.401Z,59.89
2023-06-08T18:31:50.070Z,59.96
2023-06-08T18:34:22.156Z,60.28
2023-06-08T18:36:52.494Z,59.41
2023-06-08T18:39:23.103Z,59.81
2023-06-08T18:41:53.412Z,58.96
2023-06-08T18:44:23.935Z,59.39
2023-06-08T18:46:54.234Z,59.43
2023-06-08T18:49:24.736Z,59.27
2023-06-08T18:51:55.200Z,59.39
2023-06-08T18:54:26.078Z,59.37
2023-06-08T18:56:56.595Z,59.20
2023-06-08T18:59:26.917Z,59.03
2023-06-08T19:01:57.546Z,59.05
2023-06-08T19:04:28.037Z,59.42
2023-06-08T19:06:59.118Z,59.22
2023-06-08T19:09:29.683Z,59.42
2023-06-08T19:11:59.941Z,59.56
2023-06-08T19:14:30.150Z,59.54
2023-06-08T19:17:00.793Z,59.80
2023-06-08T19:19:31.211Z,59.75
2023-06-08T19:22:01.831Z,59.70
2023-06-08T19:24:32.293Z,59.57
2023-06-08T19:27:02.639Z,59.49
2023-06-08T19:29:33.099Z,59.62
2023-06-08T19:32:03.864Z,59.43
2023-06-08T19:34:35.849Z,59.50
2023-06-08T19:37:07.360Z,59.47
2023-06-08T19:39:37.842Z,59.52
2023-06-08T19:42:10.019Z,59.37
2023-06-08T19:44:40.949Z,59.28
2023-06-08T19:47:11.487Z,59.15
2023-06-08T19:49:41.852Z,59.24
2023-06-08T19:52:12.191Z,58.79
2023-06-08T19:54:42.955Z,58.72
2023-06-08T19:57:13.809Z,58.48
2023-06-08T19:59:44.886Z,58.72
2023-06-08T20:02:15.853Z,58.90
2023-06-08T20:04:46.194Z,59.30
2023-06-08T20:07:16.634Z,59.40
2023-06-08T20:09:47.135Z,59.63
2023-06-08T20:12:17.783Z,59.96
2023-06-08T20:14:48.535Z,60.21
2023-06-08T20:17:18.863Z,60.41
2023-06-08T20:19:49.223Z,60.82
2023-06-08T20:22:19.533Z,61.13
2023-06-08T20:24:50.066Z,61.48
2023-06-08T20:27:20.413Z,61.93
2023-06-08T20:29:51.207Z,62.11
2023-06-08T20:32:21.522Z,62.34
2023-06-08T20:34:51.874Z,62.36
2023-06-08T20:37:22.444Z,62.55
2023-06-08T20:39:52.820Z,62.60
2023-06-08T20:42:23.598Z,63.00
2023-06-08T20:44:54.112Z,63.07
2023-06-08T20:47:24.905Z,63.21
2023-06-08T20:49:55.569Z,63.27
2023-06-08T20:52:27.481Z,63.24
2023-06-08T20:54:57.719Z,63.14
2023-06-08T20:57:28.092Z,63.32
2023-06-08T20:59:58.378Z,63.37
2023-06-08T21:02:28.551Z,63.55
2023-06-08T21:04:58.873Z,63.50
2023-06-08T21:07:29.138Z,63.66
2023-06-08T21:09:59.429Z,63.83
2023-06-08T21:12:29.601Z,63.99
2023-06-08T21:14:59.849Z,64.00
2023-06-08T21:17:30.151Z,64.31
2023-06-08T21:20:00.408Z,64.41
2023-06-08T21:22:30.676Z,64.57
2023-06-08T21:25:01.001Z,64.61
2023-06-08T21:27:31.822Z,64.85
2023-06-08T21:30:02.011Z,64.99
2023-06-08T21:32:32.381Z,65.08
2023-06-08T21:35:02.760Z,65.09
2023-06-08T21:37:33.007Z,65.01
2023-06-08T21:40:03.316Z,65.09
2023-06-08T21:42:33.593Z,65.19
2023-06-08T21:45:03.998Z,65.01
2023-06-08T21:47:38.070Z,64.93
2023-06-08T21:50:13.726Z,64.62
2023-06-08T21:52:44.416Z,64.37
2023-06-08T21:55:14.584Z,64.10
2023-06-08T21:57:44.860Z,63.67
2023-06-08T22:00:17.492Z,63.17
2023-06-08T22:02:48.457Z,62.46
2023-06-08T22:05:18.757Z,61.60
2023-06-08T22:07:49.022Z,61.44
2023-06-08T22:10:19.204Z,61.26
2023-06-08T22:12:50.250Z,60.72
2023-06-08T22:15:20.612Z,60.04
2023-06-08T22:17:51.172Z,59.51
2023-06-08T22:20:21.451Z,59.33
2023-06-08T22:22:51.823Z,59.20
2023-06-08T22:25:22.684Z,59.17
2023-06-08T22:27:53.776Z,59.04
2023-06-08T22:30:24.041Z,58.95
2023-06-08T22:32:54.707Z,58.87
2023-06-08T22:35:24.984Z,58.91
2023-06-08T22:37:55.160Z,58.86
2023-06-08T22:40:25.642Z,58.87
2023-06-08T22:42:55.843Z,58.95
2023-06-08T22:45:26.111Z,58.90
2023-06-08T22:47:58.594Z,59.01
2023-06-08T22:50:29.662Z,58.85
2023-06-08T22:53:01.932Z,58.81
2023-06-08T22:55:33.073Z,58.45
2023-06-08T22:58:03.780Z,58.38
2023-06-08T23:00:35.949Z,58.27
2023-06-08T23:03:08.597Z,57.94
2023-06-08T23:08:09.920Z,57.43
2023-06-08T23:10:44.301Z,57.26
2023-06-08T23:13:14.763Z,57.10
2023-06-08T23:15:45.058Z,56.96
2023-06-08T23:18:15.352Z,57.07
2023-06-08T23:20:45.636Z,57.27
2023-06-08T23:23:15.840Z,57.30
2023-06-08T23:25:46.107Z,57.34
2023-06-08T23:28:16.421Z,57.39
2023-06-08T23:30:46.660Z,57.45
2023-06-08T23:33:17.017Z,57.51
2023-06-08T23:35:47.321Z,57.43
2023-06-08T23:38:18.002Z,57.63
2023-06-08T23:40:48.294Z,57.38
2023-06-08T23:43:19.732Z,57.39
2023-06-08T23:45:51.075Z,57.46
2023-06-08T23:48:21.987Z,57.37
2023-06-08T23:50:52.496Z,57.37
2023-06-08T23:53:22.689Z,57.33
2023-06-08T23:55:52.948Z,57.41
2023-06-08T23:58:23.863Z,57.31
